Time;durP1;ratioP1;P1;durP2;ratioP2;P2;SDS_P1;SDS_P2;PMS_P1;PMS_P2;Temp;Humidity;BMP_temperature;BMP_pressure;BME280_temperature;BME280_humidity;BME280_pressure;Samples;Min_cycle;Max_cycle;Signal;HPM_P1;HPM_P2
2021/01/22 00:01:59;;;;;;;5.15;3.47;;;;;;;7.71;65.48;96125.16;6081602;23;20614;-87
2021/01/22 00:04:25;;;;;;;5.47;3.15;;;;;;;7.73;65.58;96130.25;6086616;23;20671;-88
2021/01/22 00:06:52;;;;;;;4.25;3.40;;;;;;;7.71;65.23;96143.31;6081741;23;20240;-87
2021/01/22 00:09:18;;;;;;;6.33;3.57;;;;;;;7.61;66.25;96146.53;6083777;23;20192;-88
2021/01/22 00:11:45;;;;;;;6.50;3.17;;;;;;;7.61;66.25;96156.91;6083274;23;20225;-88
2021/01/22 00:14:12;;;;;;;4.88;3.28;;;;;;;7.58;66.03;96162.31;6084355;23;20268;-86
2021/01/22 00:16:39;;;;;;;4.40;3.50;;;;;;;7.48;66.04;96168.03;6082490;23;20208;-88
2021/01/22 00:19:06;;;;;;;5.25;3.17;;;;;;;7.42;65.89;96160.59;6083263;23;20185;-87
2021/01/22 00:21:32;;;;;;;4.50;3.50;;;;;;;7.50;65.72;96175.72;6083952;23;20303;-86
2021/01/22 00:23:58;;;;;;;5.50;3.07;;;;;;;7.49;65.80;96181.84;6084203;23;20263;-88
2021/01/22 00:26:25;;;;;;;4.90;3.38;;;;;;;7.48;65.97;96157.66;6081191;23;20220;-88
2021/01/22 00:28:52;;;;;;;5.25;3.67;;;;;;;7.50;66.13;96150.63;6086162;23;20197;-89
2021/01/22 00:31:18;;;;;;;5.20;3.10;;;;;;;7.49;66.19;96154.13;6082032;23;20216;-85
2021/01/22 00:33:45;;;;;;;4.32;2.83;;;;;;;7.40;65.66;96152.06;6082167;23;20516;-87
2021/01/22 00:36:12;;;;;;;4.15;3.28;;;;;;;7.45;66.60;96121.50;6082369;23;20981;-87
2021/01/22 00:38:38;;;;;;;4.17;2.50;;;;;;;7.51;65.99;96109.94;6085048;23;20272;-89
2021/01/22 00:41:04;;;;;;;3.30;2.80;;;;;;;7.56;66.43;96086.34;6081234;23;20216;-89
2021/01/22 00:43:30;;;;;;;3.93;2.70;;;;;;;7.57;66.41;96072.41;6083258;23;20199;-88
2021/01/22 00:45:58;;;;;;;4.00;2.63;;;;;;;7.57;66.29;96056.84;6081741;23;20212;-86
2021/01/22 00:48:24;;;;;;;3.35;2.33;;;;;;;7.59;66.87;96055.00;6080367;23;20269;-88
2021/01/22 00:50:50;;;;;;;4.27;2.43;;;;;;;7.60;66.54;96048.91;6079390;23;20227;-87
2021/01/22 00:53:16;;;;;;;3.35;2.60;;;;;;;7.60;66.61;96044.53;6082316;23;20300;-87
2021/01/22 00:55:43;;;;;;;3.65;3.08;;;;;;;7.60;66.80;96026.38;6080737;23;20255;-88
2021/01/22 00:58:09;;;;;;;5.05;2.83;;;;;;;7.62;66.07;96034.91;6079736;23;20268;-88
2021/01/22 01:00:35;;;;;;;3.78;2.75;;;;;;;7.58;65.92;96030.00;6068884;23;20248;-88
2021/01/22 01:03:03;;;;;;;3.97;2.95;;;;;;;7.58;66.16;96022.22;6063969;23;20191;-88
2021/01/22 01:05:29;;;;;;;3.83;2.60;;;;;;;7.58;66.03;96010.06;6080974;23;20810;-88
2021/01/22 01:07:55;;;;;;;3.42;2.55;;;;;;;7.64;66.14;96007.09;6084629;23;20259;-89
2021/01/22 01:10:22;;;;;;;3.83;2.60;;;;;;;7.63;66.11;96000.25;6082714;23;20263;-87
2021/01/22 01:12:48;;;;;;;4.10;2.30;;;;;;;7.67;65.43;95995.72;6082604;23;20228;-87
2021/01/22 01:15:15;;;;;;;3.00;2.20;;;;;;;7.66;66.13;95989.66;6081293;23;20189;-87
2021/01/22 01:17:41;;;;;;;3.58;2.55;;;;;;;7.67;65.95;95985.34;6083077;23;20239;-86
2021/01/22 01:20:10;;;;;;;3.05;2.40;;;;;;;7.65;66.26;95961.25;6081755;23;20284;-89
2021/01/22 01:22:37;;;;;;;3.50;2.10;;;;;;;7.74;66.39;95958.09;6083967;23;20242;-89
2021/01/22 01:25:04;;;;;;;2.55;2.00;;;;;;;7.75;66.54;95956.31;6079737;23;20735;-87
2021/01/22 01:27:30;;;;;;;3.13;1.90;;;;;;;7.80;66.38;95956.88;6080117;23;20252;-86
2021/01/22 01:29:56;;;;;;;2.70;2.03;;;;;;;7.77;66.61;95950.09;6081074;23;20242;-87
2021/01/22 01:32:23;;;;;;;3.10;1.97;;;;;;;7.76;66.78;95948.44;6080566;23;20219;-87
2021/01/22 01:34:49;;;;;;;3.75;2.00;;;;;;;7.74;67.20;95955.50;6082053;23;20837;-87
2021/01/22 01:37:16;;;;;;;3.75;2.17;;;;;;;7.76;67.02;95958.81;6079703;23;20225;-88
2021/01/22 01:39:42;;;;;;;2.63;2.20;;;;;;;7.79;66.86;95958.59;6084109;23;20193;-89
2021/01/22 01:42:09;;;;;;;2.93;2.33;;;;;;;7.78;66.38;95966.50;6079327;23;20736;-88
2021/01/22 01:44:36;;;;;;;2.23;2.03;;;;;;;7.76;67.12;95968.38;6083838;23;20276;-88
2021/01/22 01:47:02;;;;;;;3.38;2.13;;;;;;;7.76;66.71;95968.38;6082181;23;20216;-88
2021/01/22 01:49:29;;;;;;;2.90;2.33;;;;;;;7.70;66.87;95969.56;6082661;23;20195;-89
2021/01/22 01:51:55;;;;;;;3.37;2.47;;;;;;;7.66;66.21;95974.09;6081318;23;20731;-86
2021/01/22 01:54:23;;;;;;;5.97;2.65;;;;;;;7.64;66.74;95977.72;6081114;23;20215;-88
2021/01/22 01:56:49;;;;;;;3.10;2.70;;;;;;;7.65;66.36;95976.81;6080698;23;20227;-88
2021/01/22 01:59:15;;;;;;;3.30;2.60;;;;;;;7.62;66.83;95971.81;6082740;23;20192;-87
2021/01/22 02:01:42;;;;;;;4.47;2.83;;;;;;;7.64;66.48;95970.78;6078801;23;20228;-86
2021/01/22 02:04:08;;;;;;;3.50;2.92;;;;;;;7.65;66.34;95962.06;6084790;23;20196;-88
2021/01/22 02:06:35;;;;;;;5.10;2.75;;;;;;;7.66;66.51;95958.53;6077737;23;20225;-88
2021/01/22 02:09:01;;;;;;;4.95;2.80;;;;;;;7.67;66.44;95962.81;6080461;23;20267;-86
2021/01/22 02:11:29;;;;;;;3.90;2.50;;;;;;;7.69;66.23;95962.72;6078620;23;21002;-87
2021/01/22 02:13:56;;;;;;;4.03;2.57;;;;;;;7.72;66.43;95952.16;6082306;23;20189;-89
2021/01/22 02:16:23;;;;;;;3.53;2.47;;;;;;;7.72;66.65;95952.16;6081748;23;20308;-88
2021/01/22 02:18:53;;;;;;;3.60;2.28;;;;;;;7.73;65.78;95962.41;6082799;23;20189;-89
2021/01/22 02:21:24;;;;;;;5.22;2.03;;;;;;;7.73;65.99;95957.22;6083588;23;20281;-87
2021/01/22 02:23:53;;;;;;;2.90;2.08;;;;;;;7.78;66.08;95962.16;6082566;23;20185;-88
2021/01/22 02:26:44;;;;;;;2.93;2.20;;;;;;;7.79;66.19;95961.19;6081703;23;20224;-87
2021/01/22 02:29:10;;;;;;;2.20;1.65;;;;;;;7.84;66.32;95951.38;6082896;23;20272;-88
2021/01/22 02:31:41;;;;;;;2.00;1.40;;;;;;;7.86;66.13;95941.72;6080080;23;20251;-86
2021/01/22 02:34:08;;;;;;;2.10;1.20;;;;;;;7.90;66.21;95932.84;6082996;23;20744;-86
2021/01/22 02:36:37;;;;;;;2.38;1.17;;;;;;;7.95;66.07;95931.69;6079943;23;20326;-87
2021/01/22 02:39:04;;;;;;;2.40;0.90;;;;;;;8.02;65.81;95932.97;6083228;23;20217;-88
2021/01/22 02:41:33;;;;;;;1.40;0.90;;;;;;;8.18;64.82;95932.81;6081090;23;20221;-87
2021/01/22 02:44:03;;;;;;;2.38;1.00;;;;;;;8.24;65.13;95943.66;6083324;23;20192;-87
2021/01/22 02:46:29;;;;;;;1.50;1.00;;;;;;;8.26;65.30;95931.38;6081240;23;20217;-88
2021/01/22 02:48:56;;;;;;;0.77;0.63;;;;;;;8.36;64.90;95930.78;6081978;23;20956;-88
2021/01/22 02:51:22;;;;;;;1.30;0.85;;;;;;;8.44;64.77;95933.78;6079529;23;20889;-88
2021/01/22 02:53:48;;;;;;;1.38;0.80;;;;;;;8.46;64.41;95937.91;6081392;23;20192;-89
2021/01/22 02:56:22;;;;;;;1.25;0.82;;;;;;;8.53;63.80;95933.16;6078917;23;20221;-87
2021/01/22 02:58:53;;;;;;;1.42;0.70;;;;;;;8.54;63.83;95919.22;6084305;23;20468;-87
2021/01/22 03:01:23;;;;;;;0.80;0.60;;;;;;;8.60;63.81;95913.66;6080243;23;20300;-87
2021/01/22 03:03:54;;;;;;;1.23;0.50;;;;;;;8.65;64.01;95905.53;6085398;23;20204;-86
2021/01/22 03:06:22;;;;;;;1.50;0.80;;;;;;;8.72;63.17;95901.59;6079847;23;20216;-89
2021/01/22 03:08:52;;;;;;;0.85;0.50;;;;;;;8.76;63.60;95913.44;6082633;23;20191;-87
2021/01/22 03:11:19;;;;;;;0.88;0.50;;;;;;;8.85;63.68;95901.59;6081905;23;20229;-87
2021/01/22 03:13:48;;;;;;;1.40;0.50;;;;;;;8.91;63.13;95911.56;6077871;23;20185;-87
2021/01/22 03:16:15;;;;;;;0.88;0.60;;;;;;;8.93;63.09;95909.69;6077866;23;20323;-86
2021/01/22 03:18:56;;;;;;;0.70;0.50;;;;;;;9.00;63.23;95921.34;6081060;23;20661;-88
2021/01/22 03:21:23;;;;;;;0.82;0.57;;;;;;;9.10;62.97;95920.72;6078562;23;20220;-87
2021/01/22 03:23:49;;;;;;;1.00;0.70;;;;;;;9.12;62.95;95917.09;6070330;23;20752;-88
2021/01/22 03:26:15;;;;;;;1.08;0.70;;;;;;;9.18;62.81;95915.84;6080846;23;20217;-86
2021/01/22 03:28:42;;;;;;;0.63;0.52;;;;;;;9.18;62.84;95908.84;6080973;23;20185;-89
2021/01/22 03:31:08;;;;;;;1.88;0.50;;;;;;;9.22;62.53;95910.28;6074703;23;20220;-88
2021/01/22 03:33:35;;;;;;;0.88;0.50;;;;;;;9.26;62.80;95911.78;6077901;23;20195;-88
2021/01/22 03:36:01;;;;;;;0.80;0.52;;;;;;;9.31;62.96;95898.44;6077709;23;20300;-87
2021/01/22 03:38:27;;;;;;;1.17;0.60;;;;;;;9.30;62.57;95902.00;6080299;23;20718;-89
2021/01/22 03:40:56;;;;;;;0.50;0.40;;;;;;;9.34;62.44;95905.22;6078803;23;21004;-90
2021/01/22 03:43:22;;;;;;;0.82;0.65;;;;;;;9.40;62.50;95900.41;6085026;23;20917;-87
2021/01/22 03:45:49;;;;;;;1.50;0.60;;;;;;;9.43;62.42;95897.59;6081596;23;20220;-88
2021/01/22 03:48:15;;;;;;;0.95;0.70;;;;;;;9.49;62.48;95901.53;6083150;23;20251;-88
2021/01/22 03:50:42;;;;;;;1.27;0.70;;;;;;;9.50;62.25;95907.56;6079081;23;20226;-86
2021/01/22 03:53:09;;;;;;;0.88;0.65;;;;;;;9.51;62.01;95906.63;6080473;23;20188;-87
2021/01/22 03:55:35;;;;;;;1.73;0.60;;;;;;;9.52;61.95;95905.69;6080483;23;21023;-86
2021/01/22 03:58:02;;;;;;;1.33;0.80;;;;;;;9.49;62.35;95906.72;6080003;23;20204;-88
2021/01/22 04:00:28;;;;;;;1.00;0.60;;;;;;;9.50;62.03;95899.75;6080469;23;20913;-89
2021/01/22 04:02:56;;;;;;;1.88;0.60;;;;;;;9.48;62.31;95909.44;6081816;23;20205;-88
2021/01/22 04:05:22;;;;;;;1.48;0.70;;;;;;;9.39;62.22;95901.34;6081162;23;20193;-89
2021/01/22 04:07:49;;;;;;;0.60;0.43;;;;;;;9.41;62.18;95904.69;6084218;23;20656;-87
2021/01/22 04:10:16;;;;;;;1.08;0.65;;;;;;;9.39;62.41;95910.91;6079979;23;20285;-89
2021/01/22 04:12:42;;;;;;;1.40;0.77;;;;;;;9.37;62.13;95908.41;6081745;23;20205;-89
2021/01/22 04:15:09;;;;;;;1.40;0.75;;;;;;;9.34;62.25;95913.03;6077801;23;20728;-89
2021/01/22 04:17:35;;;;;;;1.33;0.60;;;;;;;9.28;62.67;95914.25;6083577;23;20193;-88
2021/01/22 04:20:02;;;;;;;1.33;0.85;;;;;;;9.22;63.00;95899.06;6083092;23;20264;-89
2021/01/22 04:22:31;;;;;;;1.30;0.60;;;;;;;9.18;62.84;95900.22;6051471;23;20930;-87
2021/01/22 04:24:58;;;;;;;2.35;0.70;;;;;;;9.12;63.13;95890.25;6053237;23;20192;-89
2021/01/22 04:27:24;;;;;;;1.33;0.70;;;;;;;9.09;63.22;95893.06;6078661;23;20231;-89
2021/01/22 04:29:50;;;;;;;1.70;0.60;;;;;;;9.04;63.21;95902.00;6056600;23;20189;-87
2021/01/22 04:32:16;;;;;;;2.42;0.70;;;;;;;9.02;63.32;95893.50;6080042;23;20252;-87
2021/01/22 04:34:42;;;;;;;2.30;0.80;;;;;;;8.98;63.10;95891.19;6076764;23;20189;-86
2021/01/22 04:37:09;;;;;;;0.77;0.50;;;;;;;8.94;63.58;95890.56;6075124;23;20222;-89
2021/01/22 04:39:36;;;;;;;1.17;0.60;;;;;;;8.91;63.86;95888.16;6057563;23;20224;-88
2021/01/22 04:42:05;;;;;;;0.80;0.50;;;;;;;8.90;63.93;95886.53;6080211;23;20567;-89
2021/01/22 04:44:31;;;;;;;0.77;0.60;;;;;;;8.91;63.72;95888.16;6083127;23;20189;-86
2021/01/22 04:46:58;;;;;;;1.38;0.60;;;;;;;8.89;63.87;95877.03;6079904;23;20263;-89
2021/01/22 04:49:24;;;;;;;1.88;0.77;;;;;;;8.84;64.04;95885.16;6082655;23;20283;-89
2021/01/22 04:51:51;;;;;;;0.98;0.40;;;;;;;8.85;63.99;95876.41;6081972;23;20229;-87
2021/01/22 04:54:22;;;;;;;2.70;0.70;;;;;;;8.76;64.54;95876.22;6084394;23;20268;-87
2021/01/22 04:56:50;;;;;;;0.93;0.57;;;;;;;8.74;64.78;95875.50;6081737;23;20221;-89
2021/01/22 04:59:21;;;;;;;1.90;0.65;;;;;;;8.74;64.22;95876.31;6084088;23;20187;-88
2021/01/22 05:01:48;;;;;;;0.70;0.50;;;;;;;8.70;64.57;95869.66;6083850;23;20224;-87
2021/01/22 05:04:14;;;;;;;1.27;0.50;;;;;;;8.74;64.85;95862.50;6084445;23;20211;-87
2021/01/22 05:06:40;;;;;;;2.40;0.80;;;;;;;8.75;64.37;95869.34;6084115;23;20224;-88
2021/01/22 05:09:09;;;;;;;2.03;0.40;;;;;;;8.68;64.32;95867.16;6083236;23;20309;-87
2021/01/22 05:11:35;;;;;;;1.83;0.60;;;;;;;8.69;64.76;95865.41;6081268;23;20252;-88
2021/01/22 05:14:04;;;;;;;1.50;0.50;;;;;;;8.66;64.57;95865.63;6083537;23;20280;-88
2021/01/22 05:16:31;;;;;;;1.42;0.50;;;;;;;8.64;64.94;95863.13;6084011;23;20744;-88
2021/01/22 05:18:57;;;;;;;2.42;0.80;;;;;;;8.65;65.07;95862.16;6082256;23;20189;-90
2021/01/22 05:21:23;;;;;;;1.25;0.70;;;;;;;8.64;64.98;95851.91;6080306;23;20227;-89
2021/01/22 05:23:49;;;;;;;1.73;0.68;;;;;;;8.65;65.14;95856.16;6080716;23;20264;-90
2021/01/22 05:26:16;;;;;;;1.38;0.52;;;;;;;8.64;64.80;95847.53;6079661;23;20876;-89
2021/01/22 05:28:45;;;;;;;1.95;0.80;;;;;;;8.62;64.91;95857.19;6083230;23;20185;-89
2021/01/22 05:31:13;;;;;;;1.77;0.52;;;;;;;8.58;65.22;95854.91;6082817;23;20229;-90
2021/01/22 05:33:41;;;;;;;1.48;0.60;;;;;;;8.56;65.17;95860.19;6084395;23;20898;-89
2021/01/22 05:36:23;;;;;;;1.70;0.47;;;;;;;8.52;64.82;95850.94;6083049;23;20274;-88
2021/01/22 05:38:50;;;;;;;1.58;0.60;;;;;;;8.57;64.80;95848.06;6085635;23;20207;-89
2021/01/22 05:41:16;;;;;;;1.45;0.50;;;;;;;8.53;65.17;95842.22;6080667;23;20335;-87
2021/01/22 05:43:42;;;;;;;2.50;0.70;;;;;;;8.52;65.05;95845.75;6083362;23;20281;-88
2021/01/22 05:46:12;;;;;;;3.72;0.85;;;;;;;8.50;65.30;95850.22;6080584;23;20220;-89
2021/01/22 05:48:39;;;;;;;4.50;0.82;;;;;;;8.48;64.95;95857.28;6085180;23;21029;-90
2021/01/22 05:51:06;;;;;;;2.20;0.70;;;;;;;8.45;65.27;95862.69;6079597;23;20299;-89
2021/01/22 05:53:33;;;;;;;2.30;0.80;;;;;;;8.41;65.20;95858.59;6083816;23;20897;-89
2021/01/22 05:56:09;;;;;;;2.05;0.70;;;;;;;8.43;65.23;95861.97;6083345;23;20223;-88
2021/01/22 05:58:36;;;;;;;2.30;0.60;;;;;;;8.38;65.09;95862.25;6084436;23;20202;-87
2021/01/22 06:01:10;;;;;;;2.45;0.70;;;;;;;8.40;65.06;95864.72;6081364;23;20761;-88
2021/01/22 06:03:38;;;;;;;0.80;0.50;;;;;;;8.39;65.24;95863.06;6080022;23;20220;-89
2021/01/22 06:06:06;;;;;;;2.03;0.70;;;;;;;8.43;65.01;95864.56;6085832;23;20268;-89
2021/01/22 06:08:33;;;;;;;1.95;0.70;;;;;;;8.42;65.27;95860.31;6086034;23;20189;-88
2021/01/22 06:11:00;;;;;;;1.65;0.55;;;;;;;8.44;64.79;95864.44;6084638;23;20228;-87
2021/01/22 06:13:28;;;;;;;1.85;0.70;;;;;;;8.44;64.87;95859.25;6084668;23;20192;-89
2021/01/22 06:15:59;;;;;;;0.77;0.40;;;;;;;8.47;64.83;95850.41;6086486;23;20209;-90
2021/01/22 06:18:30;;;;;;;1.00;0.50;;;;;;;8.47;64.77;95846.06;6085089;23;20195;-89
2021/01/22 06:21:23;;;;;;;2.00;0.50;;;;;;;8.47;64.89;95837.44;6084592;23;20292;-88
2021/01/22 06:23:51;;;;;;;3.30;1.10;;;;;;;8.46;64.92;95843.56;6088592;23;20211;-89
2021/01/22 06:26:17;;;;;;;3.17;0.80;;;;;;;8.47;65.10;95840.88;6083638;23;20304;-88
2021/01/22 06:28:44;;;;;;;1.85;0.55;;;;;;;8.51;65.00;95841.50;6080614;23;20718;-87
2021/01/22 06:31:10;;;;;;;2.10;0.50;;;;;;;8.48;64.92;95846.91;6081539;23;20229;-88
2021/01/22 06:33:37;;;;;;;4.35;0.77;;;;;;;8.47;65.15;95856.47;6080641;23;20212;-88
2021/01/22 06:36:07;;;;;;;2.15;0.80;;;;;;;8.48;64.92;95857.28;6081304;23;20213;-88
2021/01/22 06:38:35;;;;;;;2.88;0.63;;;;;;;8.48;65.01;95857.28;6083681;23;20755;-88
2021/01/22 06:41:01;;;;;;;2.03;0.47;;;;;;;8.47;64.80;95850.41;6077915;23;20232;-88
2021/01/22 06:43:28;;;;;;;1.13;0.50;;;;;;;8.45;65.18;95858.34;6078096;23;20332;-88
2021/01/22 06:46:00;;;;;;;2.35;0.85;;;;;;;8.49;64.64;95846.81;6078552;23;20220;-88
2021/01/22 06:48:26;;;;;;;4.93;0.80;;;;;;;8.46;64.72;95851.38;6082563;23;20673;-89
2021/01/22 06:50:54;;;;;;;0.82;0.43;;;;;;;8.51;65.14;95859.69;6077681;23;20318;-87
2021/01/22 06:53:22;;;;;;;0.98;0.40;;;;;;;8.51;64.95;95856.25;6083119;23;20185;-88
2021/01/22 06:56:09;;;;;;;2.67;0.50;;;;;;;8.48;64.86;95857.28;6081528;23;20213;-87
2021/01/22 06:58:35;;;;;;;1.20;0.43;;;;;;;8.50;65.11;95855.41;6084719;23;20189;-88
2021/01/22 07:01:05;;;;;;;2.20;0.70;;;;;;;8.50;64.83;95860.63;6081748;23;20221;-87
2021/01/22 07:03:48;;;;;;;2.10;0.35;;;;;;;8.43;65.00;95864.56;6084807;23;20192;-88
2021/01/22 07:06:55;;;;;;;2.53;0.70;;;;;;;8.44;64.93;95866.22;6055648;23;20222;-87
2021/01/22 07:09:22;;;;;;;3.45;0.77;;;;;;;8.53;65.10;95864.75;6081644;23;20195;-86
2021/01/22 07:11:59;;;;;;;1.48;0.57;;;;;;;8.51;64.68;95871.81;6080810;23;20248;-88
2021/01/22 07:14:44;;;;;;;1.27;0.70;;;;;;;8.50;64.68;95855.41;6084189;23;20188;-88
2021/01/22 07:17:16;;;;;;;0.40;0.40;;;;;;;8.53;64.53;95865.63;6082816;23;20231;-87
2021/01/22 07:19:49;;;;;;;3.85;0.65;;;;;;;8.54;64.79;95867.25;6084195;23;20248;-87
2021/01/22 07:22:16;;;;;;;0.57;0.40;;;;;;;8.59;65.01;95869.56;6082360;23;20231;-89
2021/01/22 07:24:46;;;;;;;1.00;0.40;;;;;;;8.59;64.66;95864.38;6082679;23;20296;-89
2021/01/22 07:27:15;;;;;;;1.17;0.30;;;;;;;8.63;64.59;95865.81;6079483;23;20304;-89
2021/01/22 07:29:42;;;;;;;2.25;0.40;;;;;;;8.67;64.53;95862.06;6083982;23;20197;-87
2021/01/22 07:32:12;;;;;;;1.80;0.30;;;;;;;8.74;64.48;95867.69;6055064;23;20224;-87
2021/01/22 07:34:42;;;;;;;0.47;0.28;;;;;;;8.79;64.36;95865.63;6081557;23;20208;-89
2021/01/22 07:37:10;;;;;;;2.25;0.70;;;;;;;8.84;64.27;95858.31;6082713;23;20221;-87
2021/01/22 07:39:37;;;;;;;0.52;0.20;;;;;;;8.90;64.26;95863.13;6084075;23;20181;-89
2021/01/22 07:42:08;;;;;;;0.82;0.30;;;;;;;8.96;64.40;95867.06;6081537;23;20243;-87
2021/01/22 07:44:35;;;;;;;0.85;0.20;;;;;;;9.02;64.15;95867.50;6082248;23;20704;-87
2021/01/22 07:47:02;;;;;;;1.88;0.43;;;;;;;9.11;64.14;95854.78;6080696;23;20304;-86
2021/01/22 07:49:28;;;;;;;1.38;0.30;;;;;;;9.17;63.87;95859.53;6083990;23;20211;-87
2021/01/22 07:51:55;;;;;;;0.50;0.20;;;;;;;9.22;63.80;95857.47;6079645;23;20244;-89
2021/01/22 07:54:22;;;;;;;1.25;0.20;;;;;;;9.24;63.49;95855.56;6081535;23;20734;-88
2021/01/22 07:56:49;;;;;;;0.90;0.40;;;;;;;9.32;63.33;95861.09;6082131;23;20260;-88
2021/01/22 07:59:15;;;;;;;1.67;0.47;;;;;;;9.39;63.27;95867.53;6057558;23;20256;-87
2021/01/22 08:01:42;;;;;;;0.30;0.20;;;;;;;9.40;63.02;95856.16;6078873;23;20224;-88
2021/01/22 08:04:09;;;;;;;0.95;0.20;;;;;;;9.42;62.78;95859.50;6082466;23;20193;-87
2021/01/22 08:06:46;;;;;;;0.30;0.20;;;;;;;9.42;62.42;95859.50;6080548;23;20227;-88
2021/01/22 08:09:12;;;;;;;0.77;0.38;;;;;;;9.49;62.60;95856.47;6080744;23;20268;-89
2021/01/22 08:11:39;;;;;;;1.75;0.38;;;;;;;9.50;62.75;95863.31;6079541;23;20229;-88
2021/01/22 08:14:06;;;;;;;1.80;0.40;;;;;;;9.56;62.83;95868.13;6082119;23;20900;-89
2021/01/22 08:16:33;;;;;;;1.70;0.35;;;;;;;9.54;62.59;95867.38;6081155;23;20323;-88
2021/01/22 08:19:00;;;;;;;0.80;0.32;;;;;;;9.56;62.08;95870.72;6080410;23;20881;-87
2021/01/22 08:21:30;;;;;;;1.08;0.38;;;;;;;9.57;62.33;95877.56;6080844;23;20221;-88
2021/01/22 08:24:00;;;;;;;1.40;0.20;;;;;;;9.59;62.20;95870.47;6084807;23;20185;-88
2021/01/22 08:26:28;;;;;;;1.63;0.40;;;;;;;9.60;62.61;95885.16;6057450;23;20213;-88
2021/01/22 08:28:55;;;;;;;2.78;0.50;;;;;;;9.68;61.88;95888.03;6082682;23;20208;-88
2021/01/22 08:31:22;;;;;;;2.40;0.57;;;;;;;9.76;62.01;95885.75;6082600;23;20233;-87
2021/01/22 08:33:48;;;;;;;1.92;0.40;;;;;;;9.76;62.03;95864.91;6083388;23;20193;-87
2021/01/22 08:36:16;;;;;;;2.00;0.90;;;;;;;9.79;61.90;95867.28;6080411;23;20842;-89
2021/01/22 08:38:42;;;;;;;1.83;0.80;;;;;;;9.87;61.47;95865.91;6082494;23;20199;-88
2021/01/22 08:41:09;;;;;;;0.95;0.40;;;;;;;9.86;61.73;95869.44;6079496;23;20221;-88
2021/01/22 08:43:49;;;;;;;2.83;0.55;;;;;;;9.84;61.06;95867.78;6083425;23;20272;-89
2021/01/22 08:46:16;;;;;;;1.77;0.40;;;;;;;9.90;61.09;95871.72;6082828;23;20878;-87
2021/01/22 08:48:42;;;;;;;1.35;0.70;;;;;;;9.95;60.80;95866.19;6081832;23;20220;-89
2021/01/22 08:51:09;;;;;;;0.88;0.50;;;;;;;9.99;61.23;95868.44;6079054;23;20780;-88
2021/01/22 08:53:49;;;;;;;1.38;0.77;;;;;;;9.94;60.52;95862.72;6056950;23;20189;-89
2021/01/22 08:56:19;;;;;;;0.85;0.35;;;;;;;10.04;60.36;95855.09;6080989;23;20224;-89
2021/01/22 08:59:13;;;;;;;1.15;0.50;;;;;;;10.02;60.72;95859.59;6085191;23;20207;-88
2021/01/22 09:01:53;;;;;;;0.98;0.30;;;;;;;10.06;61.15;95868.00;6011987;23;20244;-88
2021/01/22 09:04:21;;;;;;;1.60;0.32;;;;;;;10.10;60.67;95854.63;6082358;23;20272;-87
2021/01/22 09:06:48;;;;;;;1.45;0.50;;;;;;;10.16;60.78;95854.22;6081912;23;20221;-89
2021/01/22 09:09:16;;;;;;;0.80;0.40;;;;;;;10.18;60.28;95857.53;6080575;23;20215;-88
2021/01/22 09:11:42;;;;;;;0.50;0.35;;;;;;;10.25;60.81;95859.66;6078929;23;20228;-87
2021/01/22 09:14:10;;;;;;;1.02;0.35;;;;;;;10.27;60.50;95853.38;6031775;23;20195;-89
2021/01/22 09:16:46;;;;;;;1.20;0.38;;;;;;;10.30;60.04;95854.97;6081247;23;20228;-87
2021/01/22 09:19:13;;;;;;;1.30;0.40;;;;;;;10.35;60.49;95858.09;6084047;23;20668;-88
2021/01/22 09:21:55;;;;;;;1.35;0.30;;;;;;;10.33;60.01;95852.13;6081959;23;20303;-89
2021/01/22 09:24:22;;;;;;;0.93;0.30;;;;;;;10.47;59.77;95845.91;6081067;23;20292;-88
2021/01/22 09:26:48;;;;;;;0.98;0.20;;;;;;;10.50;59.99;95861.31;6079151;23;20225;-88
2021/01/22 09:29:15;;;;;;;2.25;0.52;;;;;;;10.53;59.35;95864.53;6081201;23;20276;-88
2021/01/22 09:31:41;;;;;;;2.00;0.30;;;;;;;10.53;59.60;95856.72;6052411;23;20308;-89
2021/01/22 09:34:08;;;;;;;1.27;0.22;;;;;;;10.63;59.21;95856.84;6081732;23;20185;-89
2021/01/22 09:36:34;;;;;;;1.45;0.30;;;;;;;10.65;59.92;95854.94;6051677;23;20623;-87
2021/01/22 09:39:00;;;;;;;1.00;0.20;;;;;;;10.71;59.63;95866.69;6080012;23;20189;-87
2021/01/22 09:41:28;;;;;;;0.60;0.30;;;;;;;10.77;58.99;95868.81;6079347;23;20619;-89
2021/01/22 09:43:56;;;;;;;1.80;0.40;;;;;;;10.81;58.85;95859.84;6083267;23;20189;-87
2021/01/22 09:46:22;;;;;;;2.60;0.43;;;;;;;10.87;58.88;95861.16;6055486;23;20232;-86
2021/01/22 09:48:49;;;;;;;1.27;0.50;;;;;;;10.92;59.43;95865.06;6058222;23;20181;-88
2021/01/22 09:51:15;;;;;;;0.75;0.10;;;;;;;11.02;58.44;95864.34;6078638;23;21105;-88
2021/01/22 09:53:41;;;;;;;0.95;0.30;;;;;;;11.01;58.53;95858.31;6084454;23;20196;-87
2021/01/22 09:56:07;;;;;;;1.73;0.20;;;;;;;11.11;57.71;95850.59;6079690;23;20217;-88
2021/01/22 09:58:36;;;;;;;1.45;0.30;;;;;;;11.19;57.91;95848.22;6082819;23;20361;-89
2021/01/22 10:01:02;;;;;;;1.80;0.35;;;;;;;11.28;58.30;95846.69;6056662;23;20801;-88
2021/01/22 10:03:29;;;;;;;1.55;0.30;;;;;;;11.36;58.01;95847.75;6081759;23;20188;-89
2021/01/22 10:05:56;;;;;;;1.45;0.32;;;;;;;11.31;57.37;95834.22;6078128;23;20221;-90
2021/01/22 10:08:22;;;;;;;3.80;0.47;;;;;;;11.36;57.55;95834.69;6082716;23;20941;-87
2021/01/22 10:10:49;;;;;;;1.58;0.40;;;;;;;11.45;57.34;95834.91;6077280;23;20216;-87
2021/01/22 10:13:15;;;;;;;0.75;0.25;;;;;;;11.48;56.86;95837.28;6082567;23;20292;-86
2021/01/22 10:15:42;;;;;;;3.03;0.47;;;;;;;11.58;57.44;95827.78;6081282;23;20599;-89
2021/01/22 10:18:12;;;;;;;0.77;0.50;;;;;;;11.63;57.39;95830.84;6083159;23;20276;-88
2021/01/22 10:20:39;;;;;;;1.13;0.40;;;;;;;11.68;56.87;95818.25;6082695;23;20217;-88
2021/01/22 10:23:05;;;;;;;1.00;0.40;;;;;;;11.73;57.04;95816.09;6056242;23;20887;-89
2021/01/22 10:25:31;;;;;;;0.98;0.40;;;;;;;11.81;56.63;95825.09;6074696;23;20710;-87
2021/01/22 10:27:58;;;;;;;1.85;0.50;;;;;;;11.76;56.20;95820.22;6081492;23;20196;-88
2021/01/22 10:30:24;;;;;;;1.55;0.35;;;;;;;11.75;55.83;95818.59;6078227;23;20264;-87
2021/01/22 10:32:51;;;;;;;2.35;0.40;;;;;;;11.84;56.07;95822.25;6081999;23;20208;-88
2021/01/22 10:35:18;;;;;;;1.20;0.50;;;;;;;11.87;55.96;95825.44;6079077;23;20204;-89
2021/01/22 10:37:44;;;;;;;2.25;0.60;;;;;;;11.97;55.46;95807.25;6055620;23;20275;-87
2021/01/22 10:40:12;;;;;;;3.67;0.82;;;;;;;12.08;55.81;95807.22;6078653;23;20486;-89
2021/01/22 10:42:38;;;;;;;1.75;0.60;;;;;;;12.17;55.33;95802.16;6084127;23;20688;-88
2021/01/22 10:45:05;;;;;;;0.45;0.30;;;;;;;12.19;54.83;95801.09;6081706;23;20195;-87
2021/01/22 10:47:33;;;;;;;3.03;0.85;;;;;;;12.19;54.26;95777.59;6052056;23;20951;-88
2021/01/22 10:50:00;;;;;;;2.17;0.90;;;;;;;12.27;54.17;95797.84;6053532;23;20270;-89
2021/01/22 10:52:27;;;;;;;2.17;0.45;;;;;;;12.39;54.23;95782.91;6051205;23;20252;-88
2021/01/22 10:54:53;;;;;;;2.33;0.50;;;;;;;12.43;54.25;95779.94;6052275;23;20221;-88
2021/01/22 10:57:20;;;;;;;1.13;0.50;;;;;;;12.52;54.20;95779.16;6076181;23;20220;-87
2021/01/22 10:59:46;;;;;;;1.38;0.32;;;;;;;12.60;54.17;95772.47;6083116;23;20244;-88
2021/01/22 11:02:13;;;;;;;0.80;0.32;;;;;;;12.64;53.68;95776.47;6080220;23;20319;-88
2021/01/22 11:04:40;;;;;;;1.75;0.82;;;;;;;12.69;53.75;95779.53;6079056;23;20690;-88
2021/01/22 11:07:07;;;;;;;3.78;0.82;;;;;;;12.72;53.59;95774.03;6077677;23;20236;-88
2021/01/22 11:09:34;;;;;;;2.22;0.50;;;;;;;12.77;53.06;95774.44;6084062;23;20301;-88
2021/01/22 11:12:04;;;;;;;3.03;0.80;;;;;;;12.85;53.38;95756.34;6079401;23;20303;-88
2021/01/22 11:14:31;;;;;;;1.70;0.47;;;;;;;12.84;53.15;95770.34;6083618;23;20244;-90
2021/01/22 11:16:57;;;;;;;1.58;0.60;;;;;;;12.92;52.99;95761.84;6079588;23;20481;-89
2021/01/22 11:19:23;;;;;;;1.98;0.70;;;;;;;12.98;52.69;95765.75;6084132;23;20185;-89
2021/01/22 11:21:50;;;;;;;2.17;0.85;;;;;;;13.04;52.81;95776.50;6080755;23;20256;-88
2021/01/22 11:24:17;;;;;;;1.73;0.60;;;;;;;13.19;52.78;95774.34;6081543;23;20197;-89
2021/01/22 11:26:43;;;;;;;2.05;0.50;;;;;;;13.25;52.21;95784.28;6079672;23;20363;-88
2021/01/22 11:29:09;;;;;;;2.95;0.65;;;;;;;13.26;51.50;95754.50;6081040;23;20196;-87
2021/01/22 11:31:36;;;;;;;1.35;0.57;;;;;;;13.34;51.64;95760.91;6081036;23;20228;-89
2021/01/22 11:34:02;;;;;;;0.63;0.30;;;;;;;13.30;51.73;95768.16;6084947;23;20254;-87
2021/01/22 11:36:28;;;;;;;3.90;0.60;;;;;;;13.37;51.69;95763.25;6081587;23;20252;-88
2021/01/22 11:38:56;;;;;;;2.53;0.50;;;;;;;13.28;51.78;95757.00;6082134;23;20850;-88
2021/01/22 11:41:23;;;;;;;1.52;0.70;;;;;;;13.28;51.93;95752.59;6080374;23;20289;-88
2021/01/22 11:43:49;;;;;;;1.95;0.55;;;;;;;13.23;51.50;95757.44;6084488;23;20261;-88